Time;durP1;ratioP1;P1;durP2;ratioP2;P2;SDS_P1;SDS_P2;PMS_P1;PMS_P2;Temp;Humidity;BMP_temperature;BMP_pressure;BME280_temperature;BME280_humidity;BME280_pressure;Samples;Min_cycle;Max_cycle;Signal;HPM_P1;HPM_P2
2023/11/06 00:02:16;;;;;;;5.05;1.60;;;;;;;9.45;100.00;99274.34;5083530;28;20036;-74
2023/11/06 00:04:42;;;;;;;7.68;2.10;;;;;;;9.45;100.00;99278.75;5085361;28;20063;-74
2023/11/06 00:07:07;;;;;;;5.53;1.63;;;;;;;9.45;100.00;99276.97;5073707;28;20048;-74
2023/11/06 00:09:32;;;;;;;7.32;1.80;;;;;;;9.46;100.00;99278.66;5093783;28;20032;-74
2023/11/06 00:11:59;;;;;;;2.97;1.33;;;;;;;9.43;100.00;99275.38;5094098;28;20250;-74
2023/11/06 00:14:24;;;;;;;5.85;2.20;;;;;;;9.40;100.00;99281.63;5093702;28;20361;-74
2023/11/06 00:16:52;;;;;;;13.15;2.60;;;;;;;9.37;100.00;99281.81;5092947;28;20250;-74
2023/11/06 00:19:19;;;;;;;5.13;1.52;;;;;;;9.36;100.00;99286.19;5093948;28;20036;-75
2023/11/06 00:21:44;;;;;;;7.40;1.80;;;;;;;9.35;100.00;99283.66;5093705;28;20036;-75
2023/11/06 00:24:10;;;;;;;2.55;1.38;;;;;;;9.32;100.00;99282.09;5094595;28;20373;-75
2023/11/06 00:26:35;;;;;;;4.38;1.25;;;;;;;9.31;100.00;99296.06;5094001;28;20099;-75
2023/11/06 00:29:01;;;;;;;5.00;1.42;;;;;;;9.30;100.00;99296.19;5094327;28;20032;-75
2023/11/06 00:31:26;;;;;;;4.72;1.08;;;;;;;9.29;100.00;99308.38;5093745;28;20043;-75
2023/11/06 00:33:53;;;;;;;5.78;1.30;;;;;;;9.26;100.00;99313.81;5094369;28;20028;-75
2023/11/06 00:36:19;;;;;;;6.53;1.52;;;;;;;9.29;100.00;99312.78;5075369;28;20220;-75
2023/11/06 00:38:45;;;;;;;3.75;1.10;;;;;;;9.31;100.00;99318.75;5094230;28;20188;-75
2023/11/06 00:41:12;;;;;;;2.25;0.82;;;;;;;9.34;100.00;99331.63;5094061;28;20032;-75
2023/11/06 00:43:37;;;;;;;2.95;1.23;;;;;;;9.34;100.00;99329.84;5093848;28;20032;-75
2023/11/06 00:46:03;;;;;;;5.53;1.40;;;;;;;9.32;100.00;99331.72;5094123;28;20388;-74
2023/11/06 00:48:29;;;;;;;7.68;1.58;;;;;;;9.30;100.00;99327.53;5075152;28;20110;-75
2023/11/06 00:50:54;;;;;;;5.45;2.03;;;;;;;9.31;100.00;99330.03;5094833;28;20317;-74
2023/11/06 00:53:20;;;;;;;2.33;1.27;;;;;;;9.32;100.00;99336.94;5093598;28;20036;-74
2023/11/06 00:55:45;;;;;;;7.10;1.90;;;;;;;9.30;100.00;99333.59;5093616;28;20032;-74
2023/11/06 00:58:10;;;;;;;3.00;1.17;;;;;;;9.31;100.00;99330.03;5094259;28;20042;-75
2023/11/06 01:00:36;;;;;;;6.72;1.40;;;;;;;9.30;100.00;99336.22;5093436;28;20051;-75
2023/11/06 01:03:01;;;;;;;7.05;1.58;;;;;;;9.28;100.00;99324.16;5093604;28;20321;-75
2023/11/06 01:05:27;;;;;;;1.60;1.08;;;;;;;9.28;100.00;99329.38;5093793;28;20043;-75
2023/11/06 01:07:55;;;;;;;2.65;1.10;;;;;;;9.30;100.00;99327.53;5093473;28;20116;-74
2023/11/06 01:10:21;;;;;;;8.20;1.70;;;;;;;9.26;100.00;99342.56;5093743;28;20358;-74
2023/11/06 01:12:46;;;;;;;3.97;1.38;;;;;;;9.26;100.00;99349.53;5075235;28;20107;-75
2023/11/06 01:15:16;;;;;;;2.58;1.50;;;;;;;9.19;100.00;99356.91;5075581;28;20020;-74
2023/11/06 01:17:42;;;;;;;4.40;1.60;;;;;;;9.24;100.00;99360.09;5094124;28;20222;-74
2023/11/06 01:20:08;;;;;;;4.68;1.35;;;;;;;9.23;100.00;99348.78;5093928;28;20085;-74
2023/11/06 01:22:34;;;;;;;4.80;1.40;;;;;;;9.23;100.00;99351.41;5093042;28;20082;-74
2023/11/06 01:24:59;;;;;;;1.95;1.30;;;;;;;9.25;100.00;99356.53;5093729;28;20032;-75
2023/11/06 01:27:25;;;;;;;6.45;1.55;;;;;;;9.27;100.00;99364.28;5095027;28;20063;-74
2023/11/06 01:29:51;;;;;;;4.50;1.48;;;;;;;9.27;100.00;99374.72;5097379;28;20036;-74
2023/11/06 01:32:20;;;;;;;4.00;1.38;;;;;;;9.27;100.00;99378.19;5079160;28;20031;-74
2023/11/06 01:34:45;;;;;;;5.75;1.67;;;;;;;9.29;100.00;99391.16;5097357;28;20024;-74
2023/11/06 01:37:10;;;;;;;3.90;1.30;;;;;;;9.31;100.00;99391.91;5097004;28;20243;-75
2023/11/06 01:39:36;;;;;;;6.90;1.45;;;;;;;9.27;100.00;99401.69;5097120;28;20039;-75
2023/11/06 01:42:01;;;;;;;3.92;1.65;;;;;;;9.29;100.00;99409.44;5097626;28;20223;-74
2023/11/06 01:44:26;;;;;;;9.32;1.70;;;;;;;9.25;100.00;99411.38;5096872;28;20358;-74
2023/11/06 01:46:52;;;;;;;5.40;1.65;;;;;;;9.27;100.00;99413.91;5097791;28;20130;-75
2023/11/06 01:49:18;;;;;;;5.15;1.92;;;;;;;9.25;100.00;99415.78;5079112;28;20015;-74
2023/11/06 01:51:44;;;;;;;3.97;1.25;;;;;;;9.27;100.00;99406.91;5096855;28;20488;-75
2023/11/06 01:54:11;;;;;;;5.90;2.22;;;;;;;9.26;100.00;99405.25;5097685;28;20222;-75
2023/11/06 01:56:38;;;;;;;4.97;2.00;;;;;;;9.22;100.00;99406.34;5096740;28;20031;-75
2023/11/06 01:59:04;;;;;;;7.95;2.33;;;;;;;9.23;100.00;99400.19;5078940;28;20372;-75
2023/11/06 02:01:32;;;;;;;2.83;1.63;;;;;;;9.21;100.00;99410.72;5096707;28;20040;-75
2023/11/06 02:03:58;;;;;;;4.22;1.35;;;;;;;9.21;100.00;99409.88;5096923;28;20249;-75
2023/11/06 02:06:26;;;;;;;7.63;2.17;;;;;;;9.16;100.00;99410.13;5081467;28;20078;-75
2023/11/06 02:08:52;;;;;;;3.50;1.45;;;;;;;9.15;100.00;99411.09;5096693;28;20039;-75
2023/11/06 02:11:19;;;;;;;6.88;1.80;;;;;;;9.15;100.00;99405.88;5096427;28;20101;-75
2023/11/06 02:13:44;;;;;;;3.75;1.45;;;;;;;9.14;100.00;99406.78;5077968;28;20028;-75
2023/11/06 02:16:10;;;;;;;5.88;1.90;;;;;;;9.12;100.00;99410.44;5096625;28;20050;-75
2023/11/06 02:18:35;;;;;;;8.43;1.95;;;;;;;9.11;100.00;99408.72;5096194;28;20039;-75
2023/11/06 02:21:01;;;;;;;11.05;2.22;;;;;;;9.08;100.00;99412.38;5096675;28;20036;-75
2023/11/06 02:23:27;;;;;;;3.30;1.23;;;;;;;9.10;100.00;99414.91;5096135;28;20032;-75
2023/11/06 02:25:54;;;;;;;5.78;1.33;;;;;;;9.08;100.00;99424.56;5096555;28;20040;-75
2023/11/06 02:28:19;;;;;;;8.13;1.77;;;;;;;9.07;100.00;99418.50;5096159;28;20027;-75
2023/11/06 02:30:44;;;;;;;3.25;1.42;;;;;;;9.07;100.00;99425.50;5095951;28;20396;-75
2023/11/06 02:33:10;;;;;;;8.77;1.90;;;;;;;9.06;100.00;99429.03;5096630;28;20099;-75
2023/11/06 02:35:36;;;;;;;6.90;1.67;;;;;;;9.09;100.00;99434.94;5095717;28;20035;-75
2023/11/06 02:38:03;;;;;;;8.57;1.77;;;;;;;9.09;100.00;99431.47;5096277;28;20035;-75
2023/11/06 02:40:28;;;;;;;4.45;1.58;;;;;;;9.06;100.00;99442.97;5076720;28;20023;-75
2023/11/06 02:42:53;;;;;;;7.70;1.20;;;;;;;9.07;100.00;99443.78;5096429;28;20466;-75
2023/11/06 02:45:19;;;;;;;11.13;1.83;;;;;;;9.07;100.00;99454.25;5077344;28;20095;-75
2023/11/06 02:47:45;;;;;;;4.72;1.48;;;;;;;9.05;100.00;99462.16;5096021;28;20043;-75
2023/11/06 02:50:13;;;;;;;5.70;1.58;;;;;;;9.02;100.00;99460.56;5096646;28;20031;-75
2023/11/06 02:52:39;;;;;;;5.40;1.48;;;;;;;9.00;100.00;99466.78;5095484;28;20117;-75
2023/11/06 02:55:06;;;;;;;7.07;2.00;;;;;;;8.98;100.00;99477.31;5096003;28;20039;-75
2023/11/06 02:57:32;;;;;;;5.18;1.45;;;;;;;8.92;100.00;99471.59;5095691;28;20043;-74
2023/11/06 02:59:57;;;;;;;6.55;1.20;;;;;;;8.93;100.00;99475.88;5096560;28;20034;-75
2023/11/06 03:02:23;;;;;;;9.57;1.20;;;;;;;8.97;100.00;99474.81;5095479;28;20039;-75
2023/11/06 03:04:48;;;;;;;4.32;0.98;;;;;;;8.97;100.00;99480.03;5077331;28;20173;-75
2023/11/06 03:07:14;;;;;;;7.63;1.40;;;;;;;8.99;100.00;99478.19;5095186;28;20232;-75
2023/11/06 03:09:39;;;;;;;10.30;1.80;;;;;;;8.93;100.00;99481.09;5076829;28;20027;-75
2023/11/06 03:12:07;;;;;;;4.90;1.65;;;;;;;8.94;100.00;99485.41;5095468;28;20031;-75
2023/11/06 03:14:33;;;;;;;6.28;1.40;;;;;;;8.94;100.00;99488.03;5095293;28;20374;-75
2023/11/06 03:16:59;;;;;;;7.38;1.92;;;;;;;8.91;100.00;99494.25;5095387;28;20055;-75
2023/11/06 03:19:24;;;;;;;5.47;1.58;;;;;;;8.89;100.00;99498.72;5095389;28;20284;-75
2023/11/06 03:21:51;;;;;;;12.43;1.83;;;;;;;8.84;100.00;99488.53;5095259;28;20228;-75
2023/11/06 03:24:16;;;;;;;9.85;1.80;;;;;;;8.82;100.00;99495.63;5095308;28;20032;-75
2023/11/06 03:26:42;;;;;;;5.07;1.40;;;;;;;8.86;100.00;99505.88;5076617;28;20035;-75
2023/11/06 03:29:07;;;;;;;7.00;1.48;;;;;;;8.82;100.00;99503.44;5095292;28;20039;-75
2023/11/06 03:31:33;;;;;;;2.20;1.20;;;;;;;8.80;100.00;99500.09;5076277;28;20393;-75
2023/11/06 03:33:58;;;;;;;3.97;1.27;;;;;;;8.83;100.00;99499.06;5095715;28;20348;-75
2023/11/06 03:36:23;;;;;;;8.43;1.40;;;;;;;8.85;100.00;99497.22;5077033;28;20028;-74
2023/11/06 03:38:49;;;;;;;5.80;1.45;;;;;;;8.83;100.00;99496.44;5094692;28;20312;-75
2023/11/06 03:41:14;;;;;;;7.80;1.90;;;;;;;8.84;100.00;99498.97;5095641;28;20354;-74
2023/11/06 03:43:40;;;;;;;13.73;2.35;;;;;;;8.84;100.00;99498.97;5094753;28;20089;-75
2023/11/06 03:46:05;;;;;;;8.55;1.40;;;;;;;8.88;100.00;99507.50;5094932;28;20095;-75
2023/11/06 03:48:31;;;;;;;5.35;1.00;;;;;;;8.88;100.00;99519.69;5094518;28;20036;-76
2023/11/06 03:50:56;;;;;;;10.18;1.13;;;;;;;8.89;100.00;99518.78;5093957;28;20236;-76
2023/11/06 03:53:21;;;;;;;10.60;1.90;;;;;;;8.83;100.00;99512.13;5094544;28;20031;-76
2023/11/06 03:55:47;;;;;;;5.18;1.65;;;;;;;8.82;100.00;99508.66;5094507;28;20036;-76
2023/11/06 03:58:13;;;;;;;5.32;1.23;;;;;;;8.78;100.00;99511.53;5094821;28;20035;-76
2023/11/06 04:00:38;;;;;;;2.42;1.00;;;;;;;8.76;100.00;99521.19;5094155;28;20039;-76
2023/11/06 04:03:03;;;;;;;1.67;0.80;;;;;;;8.79;100.00;99526.28;5094773;28;20219;-76
2023/11/06 04:05:29;;;;;;;4.97;0.70;;;;;;;8.75;100.00;99517.75;5094075;28;20047;-76
2023/11/06 04:07:55;;;;;;;5.40;1.15;;;;;;;8.71;100.00;99525.81;5094106;28;20052;-76
2023/11/06 04:10:20;;;;;;;2.45;0.85;;;;;;;8.70;100.00;99519.78;5076171;28;20062;-76
2023/11/06 04:12:46;;;;;;;6.40;1.00;;;;;;;8.73;100.00;99521.34;5094081;28;20040;-75
2023/11/06 04:15:11;;;;;;;4.03;0.90;;;;;;;8.68;100.00;99520.75;5094628;28;20313;-76
2023/11/06 04:17:38;;;;;;;4.05;0.73;;;;;;;8.62;100.00;99517.59;5093938;28;20258;-76
2023/11/06 04:20:06;;;;;;;9.18;1.02;;;;;;;8.58;100.00;99521.25;5094580;28;20058;-76
2023/11/06 04:22:31;;;;;;;3.58;1.02;;;;;;;8.60;100.00;99529.88;5093598;28;20028;-76
2023/11/06 04:24:56;;;;;;;5.57;1.10;;;;;;;8.60;100.00;99532.47;5094407;28;20101;-76
2023/11/06 04:27:22;;;;;;;6.15;1.23;;;;;;;8.59;100.00;99528.19;5094415;28;20043;-76
2023/11/06 04:29:47;;;;;;;5.43;1.02;;;;;;;8.64;100.00;99544.44;5094178;28;20066;-75
2023/11/06 04:32:14;;;;;;;7.50;0.95;;;;;;;8.57;100.00;99545.69;5094557;28;20028;-76
2023/11/06 04:34:40;;;;;;;5.50;0.95;;;;;;;8.58;100.00;99549.13;5094069;28;20083;-76
2023/11/06 04:37:12;;;;;;;9.73;1.20;;;;;;;8.55;100.00;99546.66;5094531;28;20227;-76
2023/11/06 04:39:37;;;;;;;3.38;0.88;;;;;;;8.56;100.00;99550.97;5094025;28;20024;-76
2023/11/06 04:42:03;;;;;;;4.40;1.20;;;;;;;8.57;100.00;99547.47;5094744;28;20035;-76
2023/11/06 04:44:28;;;;;;;7.70;1.13;;;;;;;8.55;100.00;99555.38;5093871;28;20036;-76
2023/11/06 04:46:54;;;;;;;5.57;1.00;;;;;;;8.55;100.00;99554.50;5094459;28;20074;-75
2023/11/06 04:49:19;;;;;;;3.83;0.75;;;;;;;8.52;100.00;99565.94;5094403;28;20036;-75
2023/11/06 04:51:44;;;;;;;4.20;1.17;;;;;;;8.52;100.00;99560.75;5075561;28;20036;-76
2023/11/06 04:54:10;;;;;;;7.20;1.17;;;;;;;8.50;100.00;99570.41;5094094;28;20066;-76
2023/11/06 04:56:41;;;;;;;2.70;0.80;;;;;;;8.49;100.00;99565.28;5093743;28;20235;-76
2023/11/06 04:59:07;;;;;;;7.30;1.33;;;;;;;8.47;100.00;99556.69;5094527;28;20362;-76
2023/11/06 05:01:35;;;;;;;3.75;1.38;;;;;;;8.52;100.00;99558.13;5093858;28;20224;-76
2023/11/06 05:04:01;;;;;;;4.88;0.70;;;;;;;8.53;100.00;99565.03;5098091;28;20389;-76
2023/11/06 05:06:26;;;;;;;2.63;0.55;;;;;;;8.52;100.00;99568.56;5097781;28;20044;-76
2023/11/06 05:08:51;;;;;;;5.13;0.95;;;;;;;8.49;100.00;99566.09;5098001;28;20105;-76
2023/11/06 05:11:17;;;;;;;6.22;1.05;;;;;;;8.47;100.00;99570.56;5098051;28;20040;-76
2023/11/06 05:13:42;;;;;;;4.53;1.00;;;;;;;8.48;100.00;99579.22;5097405;28;20027;-76
2023/11/06 05:16:08;;;;;;;6.70;1.40;;;;;;;8.49;100.00;99581.75;5098152;28;20081;-76
2023/11/06 05:18:33;;;;;;;1.73;0.80;;;;;;;8.49;100.00;99586.97;5097212;28;20038;-76
2023/11/06 05:20:59;;;;;;;5.18;0.88;;;;;;;8.48;100.00;99593.13;5097639;28;20038;-76
2023/11/06 05:23:24;;;;;;;5.28;0.90;;;;;;;8.47;100.00;99593.22;5097180;28;20280;-76
2023/11/06 05:25:49;;;;;;;3.65;1.30;;;;;;;8.44;100.00;99594.19;5097266;28;20040;-77
2023/11/06 05:28:15;;;;;;;4.38;0.93;;;;;;;8.46;100.00;99589.78;5098002;28;20024;-76
2023/11/06 05:30:40;;;;;;;5.50;1.10;;;;;;;8.42;100.00;99590.81;5097193;28;20040;-76
2023/11/06 05:33:06;;;;;;;7.68;1.50;;;;;;;8.45;100.00;99593.28;5097390;28;20078;-76
2023/11/06 05:35:32;;;;;;;7.05;1.08;;;;;;;8.48;100.00;99587.91;5078441;28;20080;-75
2023/11/06 05:37:57;;;;;;;8.52;2.05;;;;;;;8.47;100.00;99595.81;5097170;28;20134;-75
2023/11/06 05:40:22;;;;;;;6.22;0.82;;;;;;;8.50;100.00;99595.69;5097141;28;20608;-75
2023/11/06 05:42:48;;;;;;;8.63;1.40;;;;;;;8.49;100.00;99607.03;5096632;28;20095;-76
2023/11/06 05:45:14;;;;;;;3.65;1.23;;;;;;;8.48;100.00;99602.72;5097256;28;20032;-76
2023/11/06 05:47:40;;;;;;;4.72;1.00;;;;;;;8.48;100.00;99606.19;5096587;28;20032;-75
2023/11/06 05:50:06;;;;;;;6.10;1.50;;;;;;;8.50;100.00;99609.56;5097161;28;20044;-76
2023/11/06 05:52:32;;;;;;;7.20;1.52;;;;;;;8.51;100.00;99610.38;5095510;28;20040;-76
2023/11/06 05:54:58;;;;;;;6.25;1.40;;;;;;;8.48;100.00;99600.09;5097176;28;20040;-76
2023/11/06 05:57:23;;;;;;;11.10;1.85;;;;;;;8.50;100.00;99611.31;5096843;28;20046;-76
2023/11/06 05:59:48;;;;;;;7.55;1.40;;;;;;;8.53;100.00;99618.97;5096703;28;20028;-76
2023/11/06 06:02:14;;;;;;;3.47;1.20;;;;;;;8.56;100.00;99621.44;5097215;28;20031;-76
2023/11/06 06:04:39;;;;;;;3.50;0.90;;;;;;;8.55;100.00;99620.59;5096635;28;20043;-76
2023/11/06 06:07:05;;;;;;;4.97;1.20;;;;;;;8.52;100.00;99625.97;5097313;28;20115;-76
2023/11/06 06:09:32;;;;;;;5.93;1.25;;;;;;;8.53;100.00;99617.22;5096426;28;20077;-76
2023/11/06 06:11:58;;;;;;;3.13;1.10;;;;;;;8.56;100.00;99627.50;5096890;28;20266;-76
2023/11/06 06:14:23;;;;;;;3.97;1.10;;;;;;;8.56;100.00;99632.72;5095560;28;20032;-75
2023/11/06 06:16:49;;;;;;;7.05;1.30;;;;;;;8.55;100.00;99640.63;5096391;28;20239;-76
2023/11/06 06:19:16;;;;;;;5.82;1.00;;;;;;;8.48;100.00;99645.31;5096752;28;20035;-76
2023/11/06 06:21:41;;;;;;;8.65;1.70;;;;;;;8.48;100.00;99641.84;5096082;28;20327;-76
2023/11/06 06:24:08;;;;;;;7.35;1.70;;;;;;;8.48;100.00;99649.69;5096394;28;20073;-76
2023/11/06 06:26:36;;;;;;;6.43;1.17;;;;;;;8.42;100.00;99654.31;5095894;28;20351;-76
2023/11/06 06:29:03;;;;;;;7.18;1.33;;;;;;;8.39;100.00;99645.75;5096536;28;20043;-75
2023/11/06 06:31:28;;;;;;;7.13;1.77;;;;;;;8.41;100.00;99646.53;5095986;28;20308;-76
2023/11/06 06:33:53;;;;;;;5.55;1.30;;;;;;;8.42;100.00;99666.50;5096574;28;20115;-75
2023/11/06 06:36:19;;;;;;;4.43;1.02;;;;;;;8.49;100.00;99664.44;5096272;28;20557;-75
2023/11/06 06:38:44;;;;;;;4.47;1.30;;;;;;;8.54;100.00;99655.44;5096006;28;20136;-75
2023/11/06 06:41:09;;;;;;;6.68;1.17;;;;;;;8.53;100.00;99650.28;5096013;28;20429;-75
2023/11/06 06:43:35;;;;;;;9.70;2.30;;;;;;;8.52;100.00;99659.91;5095510;28;20024;-75
2023/11/06 06:46:02;;;;;;;8.27;1.38;;;;;;;8.47;100.00;99655.84;5095755;28;20059;-76
2023/11/06 06:48:27;;;;;;;9.32;1.50;;;;;;;8.48;100.00;99662.72;5095833;28;20062;-75
2023/11/06 06:50:52;;;;;;;4.75;1.30;;;;;;;8.47;100.00;99674.94;5095995;28;20331;-75
2023/11/06 06:53:18;;;;;;;3.85;1.17;;;;;;;8.49;100.00;99675.69;5095726;28;20035;-75
2023/11/06 06:55:43;;;;;;;10.52;1.58;;;;;;;8.47;100.00;99666.28;5095673;28;20099;-75
2023/11/06 06:58:08;;;;;;;7.45;1.20;;;;;;;8.49;100.00;99672.25;5095634;28;20267;-75
2023/11/06 07:00:35;;;;;;;2.60;0.88;;;;;;;8.50;100.00;99680.00;5095466;28;20035;-76
2023/11/06 07:03:05;;;;;;;5.82;0.98;;;;;;;8.51;100.00;99683.44;5077535;28;20232;-75
2023/11/06 07:05:33;;;;;;;4.93;1.25;;;;;;;8.55;100.00;99695.41;5095334;28;20273;-75
2023/11/06 07:07:59;;;;;;;2.75;0.90;;;;;;;8.51;100.00;99684.28;5095273;28;20246;-75
2023/11/06 07:10:25;;;;;;;4.05;1.30;;;;;;;8.51;100.00;99691.28;5095534;28;20040;-76
2023/11/06 07:12:51;;;;;;;5.55;1.10;;;;;;;8.45;100.00;99689.81;5095820;28;20341;-75
2023/11/06 07:15:17;;;;;;;4.57;1.40;;;;;;;8.42;100.00;99692.56;5095813;28;20047;-75
2023/11/06 07:17:42;;;;;;;8.32;1.42;;;;;;;8.47;100.00;99687.97;5094017;28;20055;-75
2023/11/06 07:20:08;;;;;;;5.85;1.10;;;;;;;8.50;100.00;99698.28;5075855;28;20039;-75
2023/11/06 07:22:34;;;;;;;4.88;0.90;;;;;;;8.47;100.00;99706.25;5074934;28;20031;-76
2023/11/06 07:25:00;;;;;;;4.70;0.93;;;;;;;8.46;100.00;99707.19;5094405;28;20405;-75
2023/11/06 07:27:25;;;;;;;4.63;1.33;;;;;;;8.50;100.00;99707.88;5075783;28;20031;-75
2023/11/06 07:29:51;;;;;;;8.50;1.58;;;;;;;8.49;100.00;99714.00;5093987;28;20120;-75
2023/11/06 07:32:16;;;;;;;4.93;0.90;;;;;;;8.48;100.00;99714.91;5075655;28;20028;-75
2023/11/06 07:34:42;;;;;;;4.47;1.05;;;;;;;8.49;100.00;99712.22;5093597;28;20289;-75
2023/11/06 07:37:09;;;;;;;3.05;1.00;;;;;;;8.53;100.00;99715.53;5093979;28;20084;-75
2023/11/06 07:39:35;;;;;;;5.85;1.15;;;;;;;8.53;100.00;99715.53;5093585;28;20035;-75
2023/11/06 07:42:00;;;;;;;5.68;1.65;;;;;;;8.52;100.00;99719.06;5094265;28;20036;-75
2023/11/06 07:44:26;;;;;;;2.17;1.00;;;;;;;8.48;100.00;99727.94;5094828;28;20126;-75
2023/11/06 07:46:51;;;;;;;6.78;1.08;;;;;;;8.50;100.00;99732.19;5095102;28;20039;-75
2023/11/06 07:49:17;;;;;;;1.23;0.55;;;;;;;8.48;100.00;99722.72;5095090;28;20027;-75
2023/11/06 07:51:42;;;;;;;7.85;1.27;;;;;;;8.40;100.00;99723.97;5094539;28;20039;-75
2023/11/06 07:54:07;;;;;;;6.40;1.08;;;;;;;8.42;100.00;99731.72;5094579;28;20533;-75
2023/11/06 07:56:33;;;;;;;5.13;1.00;;;;;;;8.43;100.00;99720.38;5094180;28;20023;-75
2023/11/06 07:59:02;;;;;;;3.50;0.77;;;;;;;8.46;100.00;99722.84;5094767;28;20040;-75
2023/11/06 08:01:27;;;;;;;5.88;1.20;;;;;;;8.48;100.00;99723.59;5094149;28;20032;-75
2023/11/06 08:03:53;;;;;;;2.50;0.85;;;;;;;8.48;100.00;99726.22;5094527;28;20028;-75
2023/11/06 08:06:19;;;;;;;4.70;0.82;;;;;;;8.47;100.00;99732.34;5094634;28;20081;-75
2023/11/06 08:08:44;;;;;;;4.50;1.52;;;;;;;8.49;100.00;99727.88;5094461;28;20060;-75
2023/11/06 08:11:10;;;;;;;4.65;1.08;;;;;;;8.54;100.00;99738.94;5076287;28;20055;-75
2023/11/06 08:13:37;;;;;;;6.95;1.75;;;;;;;8.57;100.00;99733.56;5094049;28;20052;-75
2023/11/06 08:16:05;;;;;;;7.07;1.42;;;;;;;8.59;100.00;99743.94;5082829;28;20066;-75
2023/11/06 08:18:30;;;;;;;11.32;1.58;;;;;;;8.63;100.00;99755.91;5076201;28;20032;-75
2023/11/06 08:20:55;;;;;;;8.07;1.83;;;;;;;8.61;100.00;99752.53;5080998;28;20029;-75
2023/11/06 08:23:21;;;;;;;4.82;1.95;;;;;;;8.64;100.00;99762.81;5074573;28;20548;-75
2023/11/06 08:25:47;;;;;;;8.90;2.08;;;;;;;8.67;100.00;99761.81;5094035;28;20040;-75
2023/11/06 08:28:12;;;;;;;9.05;2.22;;;;;;;8.68;100.00;99753.94;5094294;28;20069;-75
2023/11/06 08:30:38;;;;;;;9.30;2.10;;;;;;;8.74;100.00;99763.22;5093719;28;20127;-75
2023/11/06 08:33:04;;;;;;;10.27;2.40;;;;;;;8.75;100.00;99750.09;5085206;28;20024;-75
2023/11/06 08:35:29;;;;;;;10.57;2.50;;;;;;;8.76;100.00;99758.75;5076389;28;20190;-75
2023/11/06 08:37:54;;;;;;;14.30;2.38;;;;;;;8.77;100.00;99744.78;5083772;28;20032;-75
2023/11/06 08:40:20;;;;;;;11.50;2.08;;;;;;;8.80;100.00;99739.41;5087372;28;20276;-75
2023/11/06 08:42:47;;;;;;;11.30;2.30;;;;;;;8.86;100.00;99744.31;5087594;28;20040;-75
2023/11/06 08:45:12;;;;;;;12.02;2.10;;;;;;;8.87;100.00;99746.00;5089195;28;20122;-76
2023/11/06 08:47:39;;;;;;;14.60;2.97;;;;;;;8.89;100.00;99757.19;5086303;28;20384;-75
2023/11/06 08:50:06;;;;;;;10.23;1.80;;;;;;;8.92;100.00;99741.38;5088135;28;20315;-75
2023/11/06 08:52:31;;;;;;;9.10;2.15;;;;;;;8.93;100.00;99748.31;5087498;28;20127;-75
2023/11/06 08:54:57;;;;;;;13.32;2.20;;;;;;;8.94;100.00;99746.53;5096856;28;20278;-75
2023/11/06 08:57:23;;;;;;;9.65;1.98;;;;;;;8.97;100.00;99739.38;5097650;28;20059;-76
2023/11/06 08:59:49;;;;;;;9.63;2.00;;;;;;;8.95;100.00;99745.59;5097180;28;20235;-75
2023/11/06 09:02:14;;;;;;;8.27;1.60;;;;;;;8.98;100.00;99751.50;5097705;28;20359;-75
2023/11/06 09:04:40;;;;;;;10.65;1.63;;;;;;;8.93;100.00;99758.75;5096089;28;20028;-75
2023/11/06 09:07:06;;;;;;;6.05;1.20;;;;;;;9.00;100.00;99754.03;5097342;28;20048;-75
2023/11/06 09:09:32;;;;;;;10.23;1.13;;;;;;;9.04;100.00;99755.59;5078110;28;20269;-75
2023/11/06 09:11:57;;;;;;;8.63;1.95;;;;;;;9.03;100.00;99765.16;5095113;28;20036;-75
2023/11/06 09:14:23;;;;;;;5.32;1.42;;;;;;;9.06;100.00;99777.25;5077625;28;20039;-75
2023/11/06 09:16:48;;;;;;;5.82;1.38;;;;;;;9.10;100.00;99781.38;5077133;28;20036;-75
2023/11/06 09:19:13;;;;;;;2.72;1.38;;;;;;;9.12;100.00;99786.53;5077673;28;20298;-75
2023/11/06 09:21:39;;;;;;;3.60;1.50;;;;;;;9.17;100.00;99792.38;5077150;28;20346;-75
2023/11/06 09:24:05;;;;;;;7.95;1.75;;;;;;;9.18;100.00;99805.31;5077300;28;20036;-75
2023/11/06 09:26:31;;;;;;;5.93;1.00;;;;;;;9.18;100.00;99794.88;5076921;28;20066;-75
2023/11/06 09:28:57;;;;;;;4.53;1.20;;;;;;;9.20;100.00;99798.28;5077283;28;20041;-75
2023/11/06 09:31:22;;;;;;;4.93;1.23;;;;;;;9.23;100.00;99813.78;5077263;28;20344;-75
2023/11/06 09:33:48;;;;;;;5.35;1.40;;;;;;;9.30;100.00;99818.72;5077223;28;20219;-75
2023/11/06 09:36:14;;;;;;;14.88;1.30;;;;;;;9.33;100.00;99806.34;5077616;28;20036;-75
2023/11/06 09:38:39;;;;;;;8.40;1.40;;;;;;;9.37;100.00;99820.91;5077052;28;20028;-75
2023/11/06 09:41:05;;;;;;;6.80;1.00;;;;;;;9.41;100.00;99811.16;5077427;28;20377;-75
2023/11/06 09:43:30;;;;;;;3.17;0.90;;;;;;;9.40;100.00;99814.69;5058103;28;20043;-75
2023/11/06 09:45:56;;;;;;;5.65;1.67;;;;;;;9.38;100.00;99824.38;5077069;28;20248;-75
2023/11/06 09:48:28;;;;;;;7.20;0.90;;;;;;;9.38;100.00;99833.03;5076566;28;20048;-75
2023/11/06 09:50:56;;;;;;;10.48;1.70;;;;;;;9.37;100.00;99839.22;5077030;28;20363;-75
2023/11/06 09:53:23;;;;;;;6.30;1.38;;;;;;;9.37;100.00;99847.06;5086196;28;20347;-75
2023/11/06 09:55:49;;;;;;;11.52;1.27;;;;;;;9.41;100.00;99847.72;5096392;28;20024;-75
2023/11/06 09:58:14;;;;;;;3.97;1.30;;;;;;;9.43;100.00;99863.34;5096915;28;20044;-75
2023/11/06 10:00:43;;;;;;;5.80;1.20;;;;;;;9.40;100.00;99857.34;5096117;28;20042;-75
2023/11/06 10:03:08;;;;;;;7.05;1.50;;;;;;;9.39;100.00;99863.50;5090250;28;20104;-75
2023/11/06 10:05:33;;;;;;;3.95;1.35;;;;;;;9.37;100.00;99865.34;5085106;28;20556;-75
2023/11/06 10:07:59;;;;;;;5.28;1.30;;;;;;;9.40;100.00;99862.56;5056860;28;20299;-75
2023/11/06 10:10:27;;;;;;;6.78;1.67;;;;;;;9.43;100.00;99879.84;5067897;28;20025;-75
2023/11/06 10:13:04;;;;;;;7.03;1.48;;;;;;;9.48;100.00;99879.59;5067073;28;20040;-75
2023/11/06 10:15:34;;;;;;;8.13;2.17;;;;;;;9.46;100.00;99877.09;5062771;28;20040;-75
2023/11/06 10:18:18;;;;;;;10.52;1.52;;;;;;;9.45;100.00;99875.38;5073254;28;20063;-75
2023/11/06 10:20:47;;;;;;;5.05;1.55;;;;;;;9.47;100.00;99886.59;5062396;28;20067;-75
2023/11/06 10:23:22;;;;;;;8.23;1.10;;;;;;;9.47;100.00;99907.53;5075094;28;20120;-75
2023/11/06 10:25:47;;;;;;;7.55;1.10;;;;;;;9.46;100.00;99871.88;5070346;28;20137;-75
2023/11/06 10:28:20;;;;;;;7.30;1.50;;;;;;;9.48;100.00;99879.59;5074205;28;20473;-75
2023/11/06 10:30:53;;;;;;;4.88;1.13;;;;;;;9.46;100.00;99894.53;5062659;28;20036;-75
2023/11/06 10:33:20;;;;;;;6.20;1.10;;;;;;;9.44;100.00;99894.63;5075369;28;20063;-75
2023/11/06 10:35:46;;;;;;;6.95;1.20;;;;;;;9.43;100.00;99897.31;5070431;28;20204;-75
2023/11/06 10:38:33;;;;;;;5.93;1.30;;;;;;;9.42;100.00;99893.84;5067307;28;20077;-75
2023/11/06 10:41:24;;;;;;;9.07;1.52;;;;;;;9.42;100.00;99901.69;5066567;28;20200;-75
2023/11/06 10:44:01;;;;;;;6.30;1.63;;;;;;;9.37;100.00;99901.09;5061983;28;20152;-75
2023/11/06 10:46:30;;;;;;;4.82;1.02;;;;;;;9.36;100.00;99909.84;5065455;28;20151;-75
2023/11/06 10:49:10;;;;;;;3.40;1.25;;;;;;;9.33;100.00;99903.00;5063765;28;20040;-75
2023/11/06 10:51:37;;;;;;;4.18;0.90;;;;;;;9.31;100.00;99897.00;5071157;28;20335;-75
2023/11/06 10:54:04;;;;;;;7.22;1.50;;;;;;;9.28;100.00;99901.53;5067554;28;20376;-75
2023/11/06 10:56:31;;;;;;;4.55;1.13;;;;;;;9.28;100.00;99897.16;5067702;28;20055;-75
2023/11/06 10:58:59;;;;;;;6.88;1.58;;;;;;;9.28;100.00;99910.22;5070643;28;20386;-75
2023/11/06 11:01:28;;;;;;;3.28;0.77;;;;;;;9.28;100.00;99906.75;5066855;28;20040;-75
2023/11/06 11:03:54;;;;;;;7.95;1.23;;;;;;;9.27;100.00;99910.31;5071367;28;20423;-75
2023/11/06 11:06:20;;;;;;;3.72;0.90;;;;;;;9.26;100.00;99901.63;5086288;28;20376;-75
2023/11/06 11:08:47;;;;;;;3.25;0.85;;;;;;;9.30;100.00;99918.84;5110233;28;20035;-75
2023/11/06 11:11:13;;;;;;;4.35;1.13;;;;;;;9.31;100.00;99920.50;5096561;28;20040;-75
2023/11/06 11:13:42;;;;;;;2.58;0.85;;;;;;;9.33;100.00;99921.31;5093935;28;20031;-75
2023/11/06 11:16:35;;;;;;;2.47;1.00;;;;;;;9.38;100.00;99915.81;5111826;28;20091;-75
2023/11/06 11:19:01;;;;;;;2.58;1.30;;;;;;;9.46;100.00;99924.13;5112254;28;20093;-75
2023/11/06 11:21:59;;;;;;;6.88;1.30;;;;;;;9.51;100.00;99927.34;5089152;28;20027;-75
2023/11/06 11:24:47;;;;;;;7.28;1.40;;;;;;;9.54;100.00;99927.19;5109052;28;20036;-75
2023/11/06 11:27:24;;;;;;;3.50;0.98;;;;;;;9.58;100.00;99941.78;5115410;28;20098;-75
2023/11/06 11:29:56;;;;;;;6.60;1.55;;;;;;;9.58;100.00;99941.78;5094752;28;20025;-75